Glenda Meredith — A8TX2 — position and weather

sailwx.info

Track history (hours):
 
Tides and Currents Weather Stations Pressure Air Temp Water Temp Dewpoint Dewpoint Depression Visibility Wind Speed Wind Dir Waves Ship Positions

Glenda Meredith

Last reported at 2016-Apr-24 23:29 UTC. Time now 2016-May-01 00:26 UTC.
Position S 29°52' E 031°09'.

Length 182 m; draft 11.5 m.

Type: Tanker. MMSI: 636014450.

Date/timePositionNaut miles runAvg speedWind from/ knotsBaromVisibWave heightAir tempDewpointWater temp
2016-Apr-24 23:29S 29°52' E 031°09'6 4.8
2016-Apr-24 22:14S 29°53' E 031°02'0 0.0
2016-Apr-24 21:32S 29°53' E 031°02'0 0.0
2016-Apr-24 20:32S 29°53' E 031°02'0 0.0
2016-Apr-24 19:32S 29°53' E 031°02'0 0.0
2016-Apr-24 18:26S 29°53' E 031°02'0 0.0
2016-Apr-24 16:32S 29°53' E 031°02'0 0.0
2016-Apr-24 15:20S 29°53' E 031°02'0 0.0
2016-Apr-24 14:32S 29°53' E 031°02'0 0.0
2016-Apr-24 13:32S 29°53' E 031°02'0 0.0
2016-Apr-24 12:20S 29°53' E 031°02'0 0.0
2016-Apr-24 11:32S 29°53' E 031°02'0 0.0
2016-Apr-24 10:20S 29°53' E 031°02'0 0.0
2016-Apr-24 09:08S 29°53' E 031°02'0 0.0
2016-Apr-24 07:08S 29°53' E 031°02'0 0.0
2016-Apr-24 04:32S 29°53' E 031°02'0 0.0
2016-Apr-24 03:32S 29°53' E 031°02'0 0.0
2016-Apr-24 02:32S 29°53' E 031°02'0 0.0
2016-Apr-24 00:26S 29°53' E 031°02'0 0.0
2016-Apr-23 23:32S 29°53' E 031°02'0 0.0
2016-Apr-23 22:32S 29°53' E 031°02'0 0.0
2016-Apr-23 21:32S 29°53' E 031°02'0 0.0
2016-Apr-23 20:26S 29°53' E 031°02'0 0.0
2016-Apr-23 19:23S 29°53' E 031°02'0 0.0
2016-Apr-23 18:08S 29°53' E 031°02'0 0.0
2016-Apr-23 17:20S 29°53' E 031°02'0 0.0
2016-Apr-23 14:20S 29°53' E 031°02'0 0.0
2016-Apr-23 13:32S 29°53' E 031°02'0 0.0
2016-Apr-23 10:20S 29°53' E 031°02'0 0.0
2016-Apr-23 09:26S 29°53' E 031°02'0 0.0
2016-Apr-23 07:26S 29°53' E 031°02'0 0.0
2016-Apr-23 06:26S 29°53' E 031°02'0 0.0
2016-Apr-23 03:20S 29°53' E 031°02'0 0.0
2016-Apr-23 02:32S 29°53' E 031°02'0 0.0
2016-Apr-23 00:32S 29°53' E 031°02'0 0.0
2016-Apr-22 23:32S 29°53' E 031°02'0 0.0
2016-Apr-22 22:32S 29°53' E 031°02'0 0.0
2016-Apr-22 15:32S 29°53' E 031°02'0 0.0
2016-Apr-21 19:33S 29°53' E 031°02'4 4.0
2016-Apr-21 18:33S 29°50' E 031°05'2 2.2
2016-Apr-21 17:33S 29°49' E 031°07'0 0.5
2016-Apr-21 16:33S 29°49' E 031°06'7 6.8
2016-Apr-21 15:33S 29°43' E 031°10'0 0.3
2016-Apr-21 14:33S 29°43' E 031°10'0 0.0
2016-Apr-21 13:33S 29°43' E 031°10'0 0.0
2016-Apr-21 12:33S 29°43' E 031°10'0 0.1
2016-Apr-21 11:33S 29°43' E 031°10'0 0.0
2016-Apr-21 10:33S 29°43' E 031°10'0 0.0
2016-Apr-21 09:33S 29°43' E 031°10'1 0.5
2016-Apr-21 08:33S 29°44' E 031°10'6 5.7
2016-Apr-21 07:33S 29°48' E 031°14'1 1.0
2016-Apr-21 06:33S 29°48' E 031°15'9 9.2
2016-Apr-21 05:33S 29°46' E 031°25'  
Track history (hours):
 
Tides and Currents Weather Stations Pressure Air Temp Water Temp Dewpoint Dewpoint Depression Visibility Wind Speed Wind Dir Waves Ship Positions

Glenda Meredith

Last reported at 2016-Apr-24 23:29 UTC. Time now 2016-May-01 00:26 UTC.
Position S 29°52' E 031°09'.

Length 182 m; draft 11.5 m.

Type: Tanker. MMSI: 636014450.

Date/timePositionNaut miles runAvg speedWind from/ knotsBaromVisibWave heightAir tempDewpointWater temp
2016-Apr-24 23:29S 29°52' E 031°09'6 4.8
2016-Apr-24 22:14S 29°53' E 031°02'0 0.0
2016-Apr-24 21:32S 29°53' E 031°02'0 0.0
2016-Apr-24 20:32S 29°53' E 031°02'0 0.0
2016-Apr-24 19:32S 29°53' E 031°02'0 0.0
2016-Apr-24 18:26S 29°53' E 031°02'0 0.0
2016-Apr-24 16:32S 29°53' E 031°02'0 0.0
2016-Apr-24 15:20S 29°53' E 031°02'0 0.0
2016-Apr-24 14:32S 29°53' E 031°02'0 0.0
2016-Apr-24 13:32S 29°53' E 031°02'0 0.0
2016-Apr-24 12:20S 29°53' E 031°02'0 0.0
2016-Apr-24 11:32S 29°53' E 031°02'0 0.0
2016-Apr-24 10:20S 29°53' E 031°02'0 0.0
2016-Apr-24 09:08S 29°53' E 031°02'0 0.0
2016-Apr-24 07:08S 29°53' E 031°02'0 0.0
2016-Apr-24 04:32S 29°53' E 031°02'0 0.0
2016-Apr-24 03:32S 29°53' E 031°02'0 0.0
2016-Apr-24 02:32S 29°53' E 031°02'0 0.0
2016-Apr-24 00:26S 29°53' E 031°02'0 0.0
2016-Apr-23 23:32S 29°53' E 031°02'0 0.0
2016-Apr-23 22:32S 29°53' E 031°02'0 0.0
2016-Apr-23 21:32S 29°53' E 031°02'0 0.0
2016-Apr-23 20:26S 29°53' E 031°02'0 0.0
2016-Apr-23 19:23S 29°53' E 031°02'0 0.0
2016-Apr-23 18:08S 29°53' E 031°02'0 0.0
2016-Apr-23 17:20S 29°53' E 031°02'0 0.0
2016-Apr-23 14:20S 29°53' E 031°02'0 0.0
2016-Apr-23 13:32S 29°53' E 031°02'0 0.0
2016-Apr-23 10:20S 29°53' E 031°02'0 0.0
2016-Apr-23 09:26S 29°53' E 031°02'0 0.0
2016-Apr-23 07:26S 29°53' E 031°02'0 0.0
2016-Apr-23 06:26S 29°53' E 031°02'0 0.0
2016-Apr-23 03:20S 29°53' E 031°02'0 0.0
2016-Apr-23 02:32S 29°53' E 031°02'0 0.0
2016-Apr-23 00:32S 29°53' E 031°02'0 0.0
2016-Apr-22 23:32S 29°53' E 031°02'0 0.0
2016-Apr-22 22:32S 29°53' E 031°02'0 0.0
2016-Apr-22 15:32S 29°53' E 031°02'0 0.0
2016-Apr-21 19:33S 29°53' E 031°02'4 4.0
2016-Apr-21 18:33S 29°50' E 031°05'2 2.2
2016-Apr-21 17:33S 29°49' E 031°07'0 0.5
2016-Apr-21 16:33S 29°49' E 031°06'7 6.8
2016-Apr-21 15:33S 29°43' E 031°10'0 0.3
2016-Apr-21 14:33S 29°43' E 031°10'0 0.0
2016-Apr-21 13:33S 29°43' E 031°10'0 0.0
2016-Apr-21 12:33S 29°43' E 031°10'0 0.1
2016-Apr-21 11:33S 29°43' E 031°10'0 0.0
2016-Apr-21 10:33S 29°43' E 031°10'0 0.0
2016-Apr-21 09:33S 29°43' E 031°10'1 0.5
2016-Apr-21 08:33S 29°44' E 031°10'6 5.7
2016-Apr-21 07:33S 29°48' E 031°14'1 1.0
2016-Apr-21 06:33S 29°48' E 031°15'9 9.2
2016-Apr-21 05:33S 29°46' E 031°25'  

Dump ship's entire track history